Time;durP1;ratioP1;P1;durP2;ratioP2;P2;SDS_P1;SDS_P2;PMS_P1;PMS_P2;Temp;Humidity;BMP_temperature;BMP_pressure;BME280_temperature;BME280_humidity;BME280_pressure;Samples;Min_cycle;Max_cycle;Signal;HPM_P1;HPM_P2
2021/07/30 00:00:15;;;;;;;2.50;2.30;;;20.80;99.90;;;;;;5001618;28;20828;-79
2021/07/30 00:02:44;;;;;;;2.60;2.27;;;20.70;99.90;;;;;;5002400;28;20435;-79
2021/07/30 00:05:13;;;;;;;5.20;2.47;;;20.70;99.90;;;;;;5001825;28;20442;-79
2021/07/30 00:07:43;;;;;;;2.43;2.07;;;20.70;99.90;;;;;;4993056;28;20457;-79
2021/07/30 00:10:12;;;;;;;2.50;2.27;;;20.60;99.90;;;;;;4985651;28;20493;-80
2021/07/30 00:12:40;;;;;;;5.93;2.50;;;20.60;99.90;;;;;;4980582;28;20463;-79
2021/07/30 00:15:09;;;;;;;2.67;2.47;;;20.60;99.90;;;;;;4986160;28;20489;-79
2021/07/30 00:17:37;;;;;;;2.20;2.00;;;20.60;99.90;;;;;;5000752;28;20461;-80
2021/07/30 00:20:08;;;;;;;3.53;2.60;;;20.50;99.90;;;;;;5001791;28;20478;-79
2021/07/30 00:22:36;;;;;;;3.53;2.20;;;20.50;99.90;;;;;;4999346;28;20451;-79
2021/07/30 00:25:05;;;;;;;3.40;2.17;;;20.50;99.90;;;;;;4991023;28;20519;-79
2021/07/30 00:27:33;;;;;;;3.20;2.20;;;20.50;99.90;;;;;;4997994;28;20451;-80
2021/07/30 00:30:01;;;;;;;2.00;1.80;;;20.40;99.90;;;;;;4981870;28;20495;-80
2021/07/30 00:32:29;;;;;;;2.30;1.90;;;20.30;99.90;;;;;;4982601;28;20845;-80
2021/07/30 00:34:58;;;;;;;3.07;2.73;;;20.40;99.90;;;;;;4982531;28;20499;-78
2021/07/30 00:37:27;;;;;;;2.43;2.23;;;20.40;99.90;;;;;;4984939;28;20518;-79
2021/07/30 00:39:56;;;;;;;3.00;2.70;;;20.40;99.90;;;;;;4981318;28;20478;-79
2021/07/30 00:42:24;;;;;;;3.87;2.93;;;20.30;99.90;;;;;;4997195;28;20455;-80
2021/07/30 00:44:52;;;;;;;3.50;2.73;;;20.30;99.90;;;;;;4984239;28;20458;-79
2021/07/30 00:47:20;;;;;;;2.90;2.60;;;20.30;99.90;;;;;;4981601;28;20529;-79
2021/07/30 00:49:49;;;;;;;3.63;2.50;;;20.30;99.90;;;;;;4989902;28;20476;-80
2021/07/30 00:52:17;;;;;;;2.90;2.60;;;20.20;99.90;;;;;;4979864;28;20459;-79
2021/07/30 00:54:46;;;;;;;2.53;1.97;;;20.20;99.90;;;;;;4980295;28;20470;-79
2021/07/30 00:57:15;;;;;;;2.73;2.10;;;20.20;99.90;;;;;;4981409;28;20447;-80
2021/07/30 00:59:44;;;;;;;6.87;3.03;;;20.20;99.90;;;;;;4991663;28;20478;-79
2021/07/30 01:02:12;;;;;;;3.30;2.27;;;20.10;99.90;;;;;;4989763;28;20521;-81
2021/07/30 01:04:41;;;;;;;2.40;2.10;;;20.10;99.90;;;;;;4988113;28;20443;-80
2021/07/30 01:07:09;;;;;;;2.80;2.60;;;20.10;99.90;;;;;;4990116;28;20545;-79
2021/07/30 01:09:37;;;;;;;2.97;2.30;;;20.10;99.90;;;;;;5000925;28;20466;-79
2021/07/30 01:12:08;;;;;;;2.73;2.37;;;20.10;99.90;;;;;;5002872;28;20441;-80
2021/07/30 01:14:36;;;;;;;2.50;2.30;;;20.10;99.90;;;;;;5002304;28;20481;-80
2021/07/30 01:17:05;;;;;;;3.30;3.00;;;20.10;99.90;;;;;;4982592;28;20925;-81
2021/07/30 01:19:33;;;;;;;2.90;2.60;;;20.00;99.90;;;;;;4982449;28;20483;-80
2021/07/30 01:22:10;;;;;;;2.83;2.63;;;20.00;99.90;;;;;;4993836;28;20556;-79
2021/07/30 01:24:40;;;;;;;4.17;1.97;;;20.00;99.90;;;;;;5000592;28;20695;-81
2021/07/30 01:27:08;;;;;;;3.03;2.70;;;19.90;99.90;;;;;;5002298;28;20454;-79
2021/07/30 01:29:36;;;;;;;3.63;2.40;;;19.90;99.90;;;;;;5001023;28;21024;-80
2021/07/30 01:32:05;;;;;;;2.30;2.10;;;19.90;99.90;;;;;;4997429;28;20455;-79
2021/07/30 01:34:34;;;;;;;2.53;2.33;;;19.90;99.90;;;;;;4982926;28;20476;-79
2021/07/30 01:37:02;;;;;;;2.07;1.83;;;19.80;99.90;;;;;;4986670;28;20454;-79
2021/07/30 01:39:30;;;;;;;3.50;1.70;;;19.90;99.90;;;;;;5000859;28;20449;-80
2021/07/30 01:41:59;;;;;;;2.30;2.10;;;19.80;99.90;;;;;;4989038;28;20490;-78
2021/07/30 01:44:28;;;;;;;3.20;2.30;;;19.80;99.90;;;;;;4981596;28;20994;-80
2021/07/30 01:46:56;;;;;;;2.33;2.23;;;19.80;99.90;;;;;;4982031;28;20494;-80
2021/07/30 01:49:24;;;;;;;2.50;2.30;;;19.80;99.90;;;;;;4979950;28;20451;-80
2021/07/30 01:51:52;;;;;;;2.87;2.13;;;19.80;99.90;;;;;;4980033;28;20451;-80
2021/07/30 01:54:20;;;;;;;2.50;2.20;;;19.80;99.90;;;;;;4995865;28;20553;-79
2021/07/30 01:56:49;;;;;;;2.77;2.47;;;19.70;99.90;;;;;;4980575;28;20467;-79
2021/07/30 01:59:18;;;;;;;3.90;2.93;;;19.70;99.90;;;;;;4978660;28;20494;-79
2021/07/30 02:01:46;;;;;;;2.30;2.10;;;19.70;99.90;;;;;;4983843;28;20981;-79
2021/07/30 02:04:18;;;;;;;4.80;2.87;;;19.70;99.90;;;;;;4969789;28;20469;-77
2021/07/30 02:06:46;;;;;;;2.37;2.17;;;19.60;99.90;;;;;;4987915;28;20977;-80
2021/07/30 02:09:14;;;;;;;2.47;2.27;;;19.60;99.90;;;;;;4999814;28;20450;-79
2021/07/30 02:11:43;;;;;;;3.07;2.37;;;19.60;99.90;;;;;;5000346;28;20614;-79
2021/07/30 02:14:17;;;;;;;2.30;2.10;;;19.60;99.90;;;;;;5000654;28;20458;-80
2021/07/30 02:16:48;;;;;;;2.30;2.10;;;19.60;99.90;;;;;;5000463;28;20964;-78
2021/07/30 02:19:17;;;;;;;2.70;2.03;;;19.60;99.90;;;;;;4999012;28;20443;-78
2021/07/30 02:21:46;;;;;;;3.50;2.63;;;19.50;99.90;;;;;;4990185;28;20471;-79
2021/07/30 02:24:15;;;;;;;2.87;2.37;;;19.50;99.90;;;;;;4981800;28;20455;-79
2021/07/30 02:26:43;;;;;;;3.40;2.37;;;19.50;99.90;;;;;;4981206;28;20951;-80
2021/07/30 02:29:11;;;;;;;2.83;2.43;;;19.50;99.90;;;;;;4979642;28;20467;-78
2021/07/30 02:31:40;;;;;;;2.43;1.90;;;19.50;99.90;;;;;;4981083;28;20455;-80
2021/07/30 02:34:10;;;;;;;3.40;2.10;;;19.50;99.90;;;;;;4981244;28;20443;-80
2021/07/30 02:36:42;;;;;;;2.27;1.90;;;19.40;99.90;;;;;;4983038;28;20450;-79
2021/07/30 02:39:11;;;;;;;4.50;2.30;;;19.40;99.90;;;;;;4999673;28;20457;-79
2021/07/30 02:41:39;;;;;;;3.87;2.23;;;19.40;99.90;;;;;;4982990;28;20491;-80
2021/07/30 02:44:07;;;;;;;2.43;2.10;;;19.30;99.90;;;;;;4981393;28;20448;-79
2021/07/30 02:46:35;;;;;;;3.00;2.10;;;19.30;99.90;;;;;;4979540;28;20971;-79
2021/07/30 02:49:03;;;;;;;3.20;2.00;;;19.30;99.90;;;;;;4979696;28;20452;-78
2021/07/30 02:51:33;;;;;;;2.30;1.90;;;19.30;99.90;;;;;;4978676;28;20478;-80
2021/07/30 02:54:01;;;;;;;2.30;2.10;;;19.30;99.90;;;;;;4994395;28;20628;-79
2021/07/30 02:56:29;;;;;;;2.10;1.90;;;19.30;99.90;;;;;;4979256;28;20447;-79
2021/07/30 02:58:57;;;;;;;2.60;2.20;;;19.30;99.90;;;;;;4980035;28;20887;-79
2021/07/30 03:01:26;;;;;;;3.30;2.10;;;19.30;99.90;;;;;;4979960;28;20510;-80
2021/07/30 03:03:54;;;;;;;3.70;2.10;;;19.30;99.90;;;;;;4980717;28;20474;-79
2021/07/30 03:06:22;;;;;;;2.97;2.60;;;19.30;99.90;;;;;;4979915;28;20538;-80
2021/07/30 03:08:52;;;;;;;2.80;2.60;;;19.30;99.90;;;;;;4977676;28;20462;-80
2021/07/30 03:11:20;;;;;;;2.80;2.13;;;19.20;99.90;;;;;;4977803;28;20510;-80
2021/07/30 03:13:48;;;;;;;2.23;2.03;;;19.20;99.90;;;;;;4987042;28;20470;-80
2021/07/30 03:16:16;;;;;;;5.33;2.00;;;19.10;99.90;;;;;;4982585;28;20463;-80
2021/07/30 03:18:44;;;;;;;6.73;2.23;;;19.10;99.90;;;;;;4980147;28;20443;-80
2021/07/30 03:21:13;;;;;;;2.10;1.90;;;19.00;99.90;;;;;;4979664;28;20475;-79
2021/07/30 03:23:41;;;;;;;1.83;1.73;;;19.00;99.90;;;;;;4980002;28;20994;-78
2021/07/30 03:26:10;;;;;;;3.60;2.73;;;19.00;99.90;;;;;;4979085;28;20454;-79
2021/07/30 03:28:38;;;;;;;2.40;1.80;;;19.00;99.90;;;;;;4980200;28;20498;-79
2021/07/30 03:31:06;;;;;;;2.57;2.37;;;18.90;99.90;;;;;;4979139;28;20483;-80
2021/07/30 03:33:34;;;;;;;2.63;2.43;;;18.90;99.90;;;;;;4980321;28;20468;-80
2021/07/30 03:36:03;;;;;;;2.83;2.57;;;18.90;99.90;;;;;;4980030;28;20450;-81
2021/07/30 03:38:31;;;;;;;2.93;2.50;;;18.90;99.90;;;;;;4997839;28;20455;-81
2021/07/30 03:41:02;;;;;;;4.43;2.50;;;18.90;99.90;;;;;;4988439;28;20463;-79
2021/07/30 03:43:32;;;;;;;3.43;2.97;;;18.90;99.90;;;;;;4981940;28;20490;-79
2021/07/30 03:46:00;;;;;;;4.23;2.40;;;18.90;99.90;;;;;;4979948;28;21013;-78
2021/07/30 03:48:28;;;;;;;2.50;2.30;;;18.90;99.90;;;;;;4977916;28;21069;-77
2021/07/30 03:50:58;;;;;;;3.80;2.30;;;18.90;99.90;;;;;;4978679;28;20567;-77
2021/07/30 03:53:26;;;;;;;3.30;2.20;;;18.90;99.90;;;;;;4979873;28;20501;-79
2021/07/30 03:55:54;;;;;;;4.30;1.90;;;18.90;99.90;;;;;;4995614;28;20459;-79
2021/07/30 03:58:22;;;;;;;4.47;3.23;;;18.90;99.90;;;;;;4980051;28;20458;-79
2021/07/30 04:00:51;;;;;;;3.33;2.30;;;18.80;99.90;;;;;;4979032;28;20516;-80
2021/07/30 04:03:20;;;;;;;2.20;2.00;;;18.80;99.90;;;;;;4978396;28;20475;-80
2021/07/30 04:05:48;;;;;;;2.57;2.10;;;18.80;99.90;;;;;;4983106;28;20498;-80
2021/07/30 04:08:16;;;;;;;2.53;2.33;;;18.80;99.90;;;;;;4982637;28;20466;-79
2021/07/30 04:10:44;;;;;;;2.90;2.60;;;18.80;99.90;;;;;;4980779;28;20545;-79
2021/07/30 04:13:12;;;;;;;3.50;2.87;;;18.80;99.90;;;;;;4983049;28;20537;-80
2021/07/30 04:15:40;;;;;;;2.90;1.83;;;18.80;99.90;;;;;;4981838;28;20963;-79
2021/07/30 04:18:10;;;;;;;2.60;1.90;;;18.80;99.90;;;;;;4983001;28;21017;-79
2021/07/30 04:20:39;;;;;;;2.50;2.10;;;18.70;99.90;;;;;;4984816;28;20481;-79
2021/07/30 04:23:07;;;;;;;2.83;2.53;;;18.70;99.90;;;;;;4988987;28;20519;-78
2021/07/30 04:25:40;;;;;;;3.10;2.17;;;18.70;99.90;;;;;;4984268;28;20450;-79
2021/07/30 04:28:08;;;;;;;2.37;2.17;;;18.70;99.90;;;;;;4979519;28;20448;-79
2021/07/30 04:30:36;;;;;;;4.23;3.00;;;18.80;99.90;;;;;;4983466;28;20478;-80
2021/07/30 04:33:05;;;;;;;2.60;2.40;;;18.70;99.90;;;;;;4980223;28;20575;-80
2021/07/30 04:35:36;;;;;;;3.23;2.83;;;18.70;99.90;;;;;;4979476;28;20451;-80
2021/07/30 04:38:04;;;;;;;3.80;2.53;;;18.70;99.90;;;;;;4963512;28;20472;-78
2021/07/30 04:40:33;;;;;;;3.60;3.30;;;18.70;99.90;;;;;;4980262;28;20486;-80
2021/07/30 04:43:01;;;;;;;2.77;2.37;;;18.70;99.90;;;;;;4980383;28;20487;-80
2021/07/30 04:45:29;;;;;;;2.97;2.67;;;18.70;99.90;;;;;;4978379;28;20857;-79
2021/07/30 04:47:57;;;;;;;3.27;2.60;;;18.70;99.90;;;;;;4984983;28;20537;-79
2021/07/30 04:50:26;;;;;;;3.03;2.77;;;18.70;99.90;;;;;;4982648;28;20511;-80
2021/07/30 04:52:56;;;;;;;2.83;2.57;;;18.70;99.90;;;;;;4983252;28;20458;-79
2021/07/30 04:55:24;;;;;;;3.10;2.43;;;18.80;99.90;;;;;;4982813;28;20470;-79
2021/07/30 04:57:53;;;;;;;4.37;2.60;;;18.80;99.90;;;;;;4982834;28;20538;-78
2021/07/30 05:00:22;;;;;;;3.87;2.73;;;18.80;99.90;;;;;;4982618;28;20498;-80
2021/07/30 05:02:53;;;;;;;3.30;2.73;;;18.80;99.90;;;;;;4982289;28;20479;-78
2021/07/30 05:05:22;;;;;;;3.10;2.73;;;18.80;99.90;;;;;;4981822;28;20809;-79
2021/07/30 05:07:50;;;;;;;3.07;2.77;;;18.80;99.90;;;;;;4993350;28;20462;-78
2021/07/30 05:10:20;;;;;;;3.63;3.20;;;18.90;99.90;;;;;;5001734;28;20536;-79
2021/07/30 05:12:48;;;;;;;4.97;3.13;;;19.00;99.90;;;;;;4988703;28;20448;-79
2021/07/30 05:15:16;;;;;;;4.07;2.63;;;19.00;99.90;;;;;;4982782;28;20459;-79
2021/07/30 05:17:44;;;;;;;3.13;2.80;;;19.00;99.90;;;;;;4982364;28;20482;-79
2021/07/30 05:20:13;;;;;;;3.43;3.13;;;19.00;99.90;;;;;;4980849;28;20498;-80
2021/07/30 05:22:41;;;;;;;4.33;3.40;;;19.00;99.90;;;;;;4996684;28;20473;-78
2021/07/30 05:25:11;;;;;;;3.30;2.90;;;19.10;99.90;;;;;;5001904;28;20450;-79
2021/07/30 05:27:41;;;;;;;3.10;2.80;;;19.10;99.90;;;;;;4987708;28;20504;-79
2021/07/30 05:30:11;;;;;;;7.73;3.93;;;19.10;99.90;;;;;;4982320;28;20467;-79
2021/07/30 05:32:39;;;;;;;3.73;2.90;;;19.10;99.90;;;;;;4982177;28;20443;-79
2021/07/30 05:35:08;;;;;;;3.03;2.83;;;19.10;99.90;;;;;;4980686;28;21098;-80
2021/07/30 05:37:36;;;;;;;3.37;3.07;;;19.10;99.90;;;;;;4982594;28;20546;-80
2021/07/30 05:40:05;;;;;;;3.90;3.20;;;19.20;99.90;;;;;;4967580;28;21298;-82
2021/07/30 05:42:33;;;;;;;3.57;3.27;;;19.20;99.90;;;;;;4955963;29;20948;-82
2021/07/30 05:45:04;;;;;;;3.77;2.93;;;19.20;99.90;;;;;;4954145;29;20587;-82
2021/07/30 05:47:32;;;;;;;3.97;3.30;;;19.30;99.90;;;;;;4963366;28;20850;-82
2021/07/30 05:50:00;;;;;;;4.47;3.17;;;19.20;99.90;;;;;;4975241;28;20463;-80
2021/07/30 05:52:28;;;;;;;3.07;2.77;;;19.40;99.90;;;;;;4988098;28;20953;-82
2021/07/30 05:54:57;;;;;;;5.07;2.80;;;19.40;99.90;;;;;;4994516;28;20462;-82
2021/07/30 05:57:25;;;;;;;8.33;4.03;;;19.50;99.90;;;;;;4994544;28;20517;-82
2021/07/30 05:59:53;;;;;;;5.90;2.93;;;19.50;99.90;;;;;;4994758;28;20883;-82
2021/07/30 06:02:23;;;;;;;3.07;2.87;;;19.50;99.90;;;;;;4995098;28;20438;-82
2021/07/30 06:04:51;;;;;;;2.80;2.60;;;19.60;99.90;;;;;;4984961;28;20474;-83
2021/07/30 06:07:19;;;;;;;4.30;2.53;;;19.70;99.90;;;;;;4971572;28;20955;-81
2021/07/30 06:09:47;;;;;;;3.40;3.10;;;19.70;99.90;;;;;;4968851;28;20519;-81
2021/07/30 06:12:15;;;;;;;3.97;3.50;;;19.80;99.90;;;;;;4974396;28;20467;-81
2021/07/30 06:14:45;;;;;;;3.50;3.07;;;19.80;99.90;;;;;;4971198;28;20510;-81
2021/07/30 06:17:13;;;;;;;4.40;4.00;;;19.90;99.90;;;;;;4970632;28;20993;-80
2021/07/30 06:19:43;;;;;;;6.33;2.90;;;19.70;99.90;;;;;;4970257;28;20463;-79
2021/07/30 06:22:11;;;;;;;3.37;2.80;;;19.70;99.90;;;;;;4981276;28;20509;-81
2021/07/30 06:24:39;;;;;;;3.53;3.23;;;19.90;99.90;;;;;;4991032;28;20478;-80
2021/07/30 06:27:07;;;;;;;2.97;2.67;;;19.90;99.90;;;;;;4979277;28;20478;-81
2021/07/30 06:29:35;;;;;;;3.63;3.30;;;19.80;99.90;;;;;;4970040;28;20467;-81
2021/07/30 06:32:04;;;;;;;5.23;3.60;;;19.90;99.90;;;;;;4969440;28;20569;-80
2021/07/30 06:34:33;;;;;;;3.40;3.10;;;20.00;99.90;;;;;;4971542;28;20526;-81
2021/07/30 06:37:04;;;;;;;3.33;2.40;;;20.10;99.90;;;;;;4971248;28;21148;-81
2021/07/30 06:39:32;;;;;;;3.93;2.70;;;20.10;99.90;;;;;;4971331;28;20503;-80
2021/07/30 06:42:00;;;;;;;3.13;2.33;;;20.20;99.90;;;;;;4972101;28;20466;-77
2021/07/30 06:44:28;;;;;;;3.90;3.60;;;20.10;99.90;;;;;;4974281;28;20475;-78
2021/07/30 06:46:56;;;;;;;4.00;3.70;;;20.10;99.90;;;;;;4973701;28;20697;-78
2021/07/30 06:49:24;;;;;;;6.47;3.37;;;20.10;99.90;;;;;;4972535;28;20452;-79
2021/07/30 06:51:52;;;;;;;3.63;2.60;;;20.20;99.90;;;;;;4967108;28;20466;-79
2021/07/30 06:54:23;;;;;;;5.30;3.27;;;20.60;99.90;;;;;;4977856;28;20453;-78
2021/07/30 06:56:51;;;;;;;3.60;3.00;;;20.80;99.90;;;;;;4972599;28;20466;-83
2021/07/30 06:59:19;;;;;;;2.67;2.20;;;21.20;99.90;;;;;;4972230;28;20446;-83
2021/07/30 07:01:49;;;;;;;3.80;3.50;;;21.50;99.90;;;;;;4985364;28;20880;-84
2021/07/30 07:04:17;;;;;;;4.20;3.67;;;21.80;99.90;;;;;;4968099;28;20519;-83
2021/07/30 07:06:47;;;;;;;3.47;3.00;;;22.20;99.90;;;;;;4960329;28;20466;-83
2021/07/30 07:09:15;;;;;;;4.47;3.30;;;22.50;99.90;;;;;;4987917;28;20446;-83
2021/07/30 07:11:45;;;;;;;5.77;3.60;;;22.60;99.90;;;;;;4963016;28;20459;-79
2021/07/30 07:14:13;;;;;;;4.07;3.67;;;22.70;99.90;;;;;;4974875;28;20826;-79
2021/07/30 07:16:42;;;;;;;3.03;2.83;;;23.00;99.90;;;;;;4971709;28;20989;-81
2021/07/30 07:19:11;;;;;;;3.80;3.50;;;23.20;99.90;;;;;;4971908;28;20496;-80
2021/07/30 07:21:39;;;;;;;4.40;3.97;;;23.20;99.90;;;;;;4987784;28;20517;-80
2021/07/30 07:24:08;;;;;;;3.60;3.30;;;23.30;99.90;;;;;;4980966;28;20475;-79
2021/07/30 07:26:37;;;;;;;3.67;2.93;;;23.50;99.90;;;;;;4968910;28;20518;-81
2021/07/30 07:29:07;;;;;;;5.90;2.90;;;23.50;99.90;;;;;;4970790;28;20544;-79
2021/07/30 07:31:35;;;;;;;3.73;3.50;;;23.50;99.90;;;;;;4970500;28;20467;-80
2021/07/30 07:34:04;;;;;;;4.10;3.20;;;23.50;99.90;;;;;;4981430;28;20461;-80
2021/07/30 07:36:32;;;;;;;3.70;3.20;;;23.50;99.90;;;;;;4971334;28;20479;-79
2021/07/30 07:39:00;;;;;;;3.53;3.03;;;23.50;99.90;;;;;;4986384;28;20545;-79
2021/07/30 07:41:28;;;;;;;4.67;2.90;;;23.50;99.90;;;;;;4966911;28;20632;-80
2021/07/30 07:43:56;;;;;;;3.07;2.53;;;23.40;99.90;;;;;;4974251;28;20542;-80
2021/07/30 07:46:26;;;;;;;4.20;3.40;;;23.30;99.90;;;;;;4974014;28;20939;-81
2021/07/30 07:48:54;;;;;;;3.43;3.00;;;23.20;99.90;;;;;;4972975;28;20882;-78
2021/07/30 07:51:22;;;;;;;2.80;2.60;;;23.20;99.90;;;;;;4971498;28;20477;-82
2021/07/30 07:53:50;;;;;;;3.17;2.87;;;23.20;99.90;;;;;;4974755;28;20443;-81
2021/07/30 07:56:18;;;;;;;3.07;2.87;;;23.20;99.90;;;;;;4974178;28;20435;-81
2021/07/30 07:58:47;;;;;;;2.97;2.67;;;23.20;99.90;;;;;;4983059;28;20446;-80
2021/07/30 08:01:15;;;;;;;4.70;2.70;;;23.20;99.90;;;;;;4993231;28;20461;-82
2021/07/30 08:03:46;;;;;;;2.70;2.50;;;23.30;99.90;;;;;;4984303;28;20447;-80
2021/07/30 08:06:18;;;;;;;3.40;3.10;;;23.30;99.90;;;;;;4977804;28;20474;-80
2021/07/30 08:08:47;;;;;;;3.33;2.93;;;23.30;99.90;;;;;;4993166;28;20442;-80
2021/07/30 08:11:16;;;;;;;2.73;2.50;;;23.30;99.90;;;;;;4993031;28;21029;-82
2021/07/30 08:13:45;;;;;;;3.33;3.03;;;23.30;99.90;;;;;;4993157;28;20461;-80
2021/07/30 08:16:13;;;;;;;3.23;2.17;;;23.30;99.90;;;;;;4975214;28;20541;-80
2021/07/30 08:18:41;;;;;;;3.20;2.53;;;23.30;99.90;;;;;;4972701;28;20447;-81
2021/07/30 08:21:11;;;;;;;4.40;2.73;;;23.30;99.90;;;;;;4972671;28;21033;-81
2021/07/30 08:23:43;;;;;;;3.70;3.40;;;23.30;99.90;;;;;;4973332;28;20443;-82
2021/07/30 08:26:12;;;;;;;2.93;2.70;;;23.30;99.90;;;;;;4982857;28;20475;-82
2021/07/30 08:28:40;;;;;;;3.37;3.07;;;23.40;99.90;;;;;;4988087;28;20444;-80
2021/07/30 08:31:08;;;;;;;4.93;3.50;;;23.40;99.90;;;;;;4971600;28;20486;-81
2021/07/30 08:33:37;;;;;;;3.77;3.17;;;23.30;99.90;;;;;;4973159;28;20530;-80
2021/07/30 08:36:07;;;;;;;3.30;3.00;;;23.30;99.90;;;;;;4972606;28;20442;-81
2021/07/30 08:38:37;;;;;;;5.17;3.37;;;23.40;99.90;;;;;;4971681;28;20216;-80
2021/07/30 08:41:05;;;;;;;3.20;3.00;;;23.50;99.90;;;;;;4972824;28;20471;-81
2021/07/30 08:43:36;;;;;;;3.40;2.80;;;23.50;99.90;;;;;;4973278;28;20454;-79
2021/07/30 08:46:05;;;;;;;3.80;3.50;;;23.40;99.90;;;;;;4976416;28;20474;-82
2021/07/30 08:48:36;;;;;;;3.57;3.03;;;23.50;99.90;;;;;;4992685;28;20445;-78
2021/07/30 08:51:07;;;;;;;4.97;3.27;;;23.60;99.90;;;;;;4990320;28;20516;-78
2021/07/30 08:53:35;;;;;;;2.83;2.63;;;23.60;99.90;;;;;;4992080;28;21121;-79
2021/07/30 08:56:05;;;;;;;3.40;2.87;;;23.60;99.90;;;;;;4975123;28;20459;-79
2021/07/30 08:58:34;;;;;;;3.10;2.83;;;23.60;99.90;;;;;;4977547;28;20466;-79
2021/07/30 09:01:03;;;;;;;3.03;2.73;;;23.70;99.90;;;;;;4953973;28;20476;-78
2021/07/30 09:03:38;;;;;;;4.10;3.70;;;23.70;99.90;;;;;;4986238;28;20486;-79
2021/07/30 09:06:16;;;;;;;3.70;3.00;;;23.60;99.90;;;;;;4986987;28;20471;-80
2021/07/30 09:08:45;;;;;;;3.63;3.33;;;23.60;99.90;;;;;;4972545;28;20451;-77
2021/07/30 09:11:29;;;;;;;4.30;3.30;;;23.60;99.90;;;;;;4972586;28;20479;-77
2021/07/30 09:13:58;;;;;;;3.57;2.83;;;23.70;99.90;;;;;;4971295;28;20479;-79
2021/07/30 09:16:28;;;;;;;3.10;2.87;;;23.80;99.90;;;;;;4972626;28;20479;-78
2021/07/30 09:19:05;;;;;;;4.33;3.57;;;23.70;99.90;;;;;;4971529;28;20569;-79
2021/07/30 09:21:35;;;;;;;4.43;3.50;;;23.80;99.90;;;;;;4972847;28;20471;-82
2021/07/30 09:24:04;;;;;;;3.20;2.70;;;23.80;99.90;;;;;;4971597;28;20616;-78
2021/07/30 09:26:39;;;;;;;4.70;2.93;;;23.90;99.90;;;;;;4972405;28;20521;-79
2021/07/30 09:29:10;;;;;;;3.73;3.27;;;23.90;99.90;;;;;;4972157;28;20470;-79
2021/07/30 09:31:47;;;;;;;4.43;3.23;;;23.80;99.90;;;;;;4972783;28;20451;-78
2021/07/30 09:34:21;;;;;;;4.33;2.90;;;23.90;99.90;;;;;;4972789;28;20459;-81
2021/07/30 09:36:52;;;;;;;3.07;2.87;;;24.00;99.90;;;;;;4972198;28;20459;-78
2021/07/30 09:39:22;;;;;;;4.43;3.50;;;24.00;99.90;;;;;;4971978;28;20455;-79
2021/07/30 09:41:56;;;;;;;3.95;3.55;;;24.10;99.90;;;;;;4969591;28;20448;-78
2021/07/30 09:44:25;;;;;;;3.90;3.27;;;24.10;99.90;;;;;;4967836;28;20210;-79
2021/07/30 09:47:17;;;;;;;5.17;4.67;;;24.10;99.90;;;;;;4973144;28;20494;-80
2021/07/30 09:49:55;;;;;;;4.00;3.40;;;24.10;99.90;;;;;;4949768;28;20503;-78
2021/07/30 09:52:24;;;;;;;5.00;3.60;;;24.20;99.90;;;;;;4972061;28;20867;-79
2021/07/30 09:54:54;;;;;;;3.63;3.20;;;24.20;99.90;;;;;;4972283;28;20443;-80
2021/07/30 09:57:25;;;;;;;5.53;3.80;;;24.30;99.90;;;;;;4971202;28;20448;-82
2021/07/30 09:59:58;;;;;;;4.47;4.07;;;24.30;99.90;;;;;;4971954;28;20219;-82
2021/07/30 10:02:28;;;;;;;3.70;3.40;;;24.40;99.90;;;;;;4983573;28;20498;-84
2021/07/30 10:04:57;;;;;;;4.50;4.10;;;24.50;99.90;;;;;;4988633;28;20493;-84
2021/07/30 10:07:27;;;;;;;4.10;3.67;;;24.50;99.90;;;;;;4983372;28;20831;-84
2021/07/30 10:10:01;;;;;;;4.30;3.57;;;24.40;99.90;;;;;;4992484;28;20521;-84
2021/07/30 10:12:32;;;;;;;4.70;3.30;;;24.40;99.90;;;;;;4988326;28;20457;-86
2021/07/30 10:15:03;;;;;;;4.53;4.13;;;24.50;99.90;;;;;;4970242;28;20485;-84
2021/07/30 10:17:33;;;;;;;3.20;2.90;;;24.50;99.90;;;;;;4977533;28;20462;-85
2021/07/30 10:20:03;;;;;;;4.03;3.23;;;24.60;99.90;;;;;;4981656;28;20525;-83
2021/07/30 10:22:42;;;;;;;3.13;2.80;;;24.70;99.90;;;;;;4973354;28;20459;-84
2021/07/30 10:25:21;;;;;;;6.03;4.33;;;24.80;99.90;;;;;;4973172;28;20439;-84
2021/07/30 10:27:53;;;;;;;4.47;3.40;;;24.90;99.90;;;;;;4972992;28;20450;-83
2021/07/30 10:30:22;;;;;;;4.30;4.00;;;25.00;99.90;;;;;;4987844;28;20517;-84
2021/07/30 10:32:52;;;;;;;4.57;3.63;;;25.00;99.90;;;;;;4971716;28;20456;-84
2021/07/30 10:35:42;;;;;;;3.70;3.40;;;25.00;99.90;;;;;;4973542;28;20439;-83
2021/07/30 10:38:12;;;;;;;4.17;3.77;;;25.00;99.90;;;;;;4972917;28;20463;-84
2021/07/30 10:40:40;;;;;;;4.07;3.70;;;25.00;99.90;;;;;;4972808;28;20459;-84
2021/07/30 10:43:11;;;;;;;6.60;5.33;;;25.00;99.90;;;;;;4972292;28;20480;-84
2021/07/30 10:45:41;;;;;;;4.10;3.70;;;25.00;99.90;;;;;;4953434;28;20521;-84
2021/07/30 10:48:36;;;;;;;4.80;4.20;;;25.00;99.90;;;;;;4953810;29;20951;-83
2021/07/30 10:51:23;;;;;;;4.10;3.70;;;25.10;99.90;;;;;;4960802;28;20479;-84
2021/07/30 10:53:53;;;;;;;5.77;3.63;;;25.10;99.90;;;;;;4964113;28;20458;-83
2021/07/30 10:56:51;;;;;;;3.30;3.10;;;25.10;99.90;;;;;;4972784;28;20451;-83
2021/07/30 10:59:23;;;;;;;3.92;3.63;;;25.20;99.90;;;;;;4971341;28;20449;-83
2021/07/30 11:02:01;;;;;;;5.37;3.63;;;25.20;99.90;;;;;;4990167;28;20569;-83
2021/07/30 11:04:31;;;;;;;3.73;3.30;;;25.20;99.90;;;;;;4992735;28;20465;-83
2021/07/30 11:07:03;;;;;;;4.23;3.93;;;25.30;99.90;;;;;;4985381;28;20818;-81
2021/07/30 11:09:39;;;;;;;4.93;4.43;;;25.30;99.90;;;;;;4987402;28;20459;-83
2021/07/30 11:12:13;;;;;;;3.80;3.37;;;25.30;99.90;;;;;;4972573;28;20501;-85
2021/07/30 11:14:45;;;;;;;4.53;4.13;;;25.20;99.90;;;;;;4978278;28;20465;-83
2021/07/30 11:17:14;;;;;;;5.90;4.43;;;25.30;99.90;;;;;;4977806;28;20483;-83
2021/07/30 11:19:45;;;;;;;6.20;3.20;;;25.40;99.90;;;;;;4977716;28;20502;-83
2021/07/30 11:22:16;;;;;;;4.00;3.70;;;25.40;99.90;;;;;;4977310;28;20435;-83
2021/07/30 11:24:46;;;;;;;5.07;4.57;;;25.50;99.90;;;;;;4976186;28;20451;-83
2021/07/30 11:27:16;;;;;;;4.17;3.77;;;25.50;99.90;;;;;;4976540;28;20486;-83
2021/07/30 11:29:47;;;;;;;4.07;3.60;;;25.70;99.90;;;;;;4975621;28;20831;-83
2021/07/30 11:32:16;;;;;;;3.50;3.20;;;25.70;99.90;;;;;;4977518;28;20982;-83
2021/07/30 11:34:46;;;;;;;5.63;4.17;;;25.60;99.90;;;;;;4990659;28;20469;-84
2021/07/30 11:37:17;;;;;;;4.83;3.70;;;25.60;99.90;;;;;;4993984;28;21067;-83
2021/07/30 11:39:48;;;;;;;4.17;3.77;;;25.50;99.90;;;;;;4971986;28;20475;-85
2021/07/30 11:42:23;;;;;;;4.17;3.77;;;25.60;99.90;;;;;;4976767;28;20432;-83
2021/07/30 11:44:55;;;;;;;5.17;3.77;;;25.50;99.90;;;;;;4976529;28;20449;-83
2021/07/30 11:47:24;;;;;;;4.23;3.83;;;25.60;99.90;;;;;;4976520;28;20470;-83
2021/07/30 11:50:03;;;;;;;3.70;3.40;;;25.60;99.90;;;;;;4975722;28;20458;-83
2021/07/30 11:52:32;;;;;;;4.77;4.37;;;25.80;99.90;;;;;;4988716;28;20450;-82
2021/07/30 11:55:14;;;;;;;6.10;4.30;;;25.80;99.90;;;;;;4976533;28;20466;-83
2021/07/30 11:57:43;;;;;;;5.03;4.43;;;25.80;99.90;;;;;;4989624;28;20454;-83
2021/07/30 12:00:23;;;;;;;6.50;4.50;;;25.80;99.90;;;;;;4975895;28;20990;-83
2021/07/30 12:02:51;;;;;;;9.17;4.63;;;26.00;99.90;;;;;;4991136;28;20462;-83
2021/07/30 12:05:27;;;;;;;5.23;4.73;;;26.00;99.90;;;;;;4991593;28;20505;-83
2021/07/30 12:07:58;;;;;;;5.33;4.83;;;26.00;99.90;;;;;;4976019;28;20474;-83
2021/07/30 12:10:28;;;;;;;5.87;5.27;;;26.00;99.90;;;;;;4990800;28;20482;-82
2021/07/30 12:13:00;;;;;;;4.37;3.97;;;26.00;99.90;;;;;;4974787;28;20974;-83
2021/07/30 12:15:30;;;;;;;4.87;4.47;;;26.10;99.90;;;;;;4976101;28;20459;-83
2021/07/30 12:18:00;;;;;;;5.27;4.67;;;26.10;99.90;;;;;;4977379;28;21422;-83
2021/07/30 12:20:31;;;;;;;3.93;3.63;;;26.00;99.90;;;;;;4976538;28;20823;-83
2021/07/30 12:23:03;;;;;;;4.93;4.23;;;26.00;99.90;;;;;;4977310;28;20459;-83
2021/07/30 12:25:36;;;;;;;4.47;4.07;;;26.00;99.90;;;;;;4974340;28;20494;-83
2021/07/30 12:28:07;;;;;;;4.70;4.30;;;26.00;99.90;;;;;;4976131;28;20494;-83
2021/07/30 12:30:38;;;;;;;5.30;4.67;;;26.00;99.90;;;;;;4975720;28;20477;-83
2021/07/30 12:33:24;;;;;;;4.50;4.10;;;26.00;99.90;;;;;;4976136;28;20446;-82
2021/07/30 12:36:03;;;;;;;4.40;4.00;;;25.90;99.90;;;;;;4991063;28;20462;-83
2021/07/30 12:38:31;;;;;;;5.33;4.87;;;25.80;99.90;;;;;;4965914;28;20452;-84
2021/07/30 12:41:19;;;;;;;5.37;4.87;;;25.70;99.90;;;;;;4956179;28;20487;-83
2021/07/30 12:43:48;;;;;;;5.00;4.50;;;25.70;99.90;;;;;;4956681;29;20456;-83
2021/07/30 12:46:38;;;;;;;7.47;4.53;;;25.80;99.90;;;;;;4971259;28;20459;-83
2021/07/30 12:49:07;;;;;;;4.43;4.13;;;25.80;99.90;;;;;;4975848;28;20789;-83
2021/07/30 12:51:36;;;;;;;4.70;4.30;;;25.70;99.90;;;;;;4985611;28;20859;-85
2021/07/30 12:54:06;;;;;;;5.27;4.43;;;25.60;99.90;;;;;;4973467;28;20491;-83
2021/07/30 12:56:57;;;;;;;4.50;4.10;;;25.90;99.90;;;;;;4975570;28;20934;-83
2021/07/30 12:59:47;;;;;;;4.53;4.13;;;26.00;99.90;;;;;;4973671;28;20890;-83
2021/07/30 13:02:18;;;;;;;5.87;5.37;;;25.90;99.90;;;;;;4975388;28;20459;-82